sensor_id;sensor_type;location;lat;lon;timestamp;P1;durP1;ratioP1;P2;durP2;ratioP2
10795;SDS011;5450;42.994;23.372;2022-08-19T00:02:18;7.20;;;6.70;;
10795;SDS011;5450;42.994;23.372;2022-08-19T00:07:49;6.90;;;6.50;;
10795;SDS011;5450;42.994;23.372;2022-08-19T00:10:17;6.37;;;5.97;;
10795;SDS011;5450;42.994;23.372;2022-08-19T00:12:51;6.90;;;6.40;;
10795;SDS011;5450;42.994;23.372;2022-08-19T00:15:19;6.60;;;6.17;;
10795;SDS011;5450;42.994;23.372;2022-08-19T00:17:54;7.50;;;6.80;;
10795;SDS011;5450;42.994;23.372;2022-08-19T00:20:21;6.43;;;6.03;;
10795;SDS011;5450;42.994;23.372;2022-08-19T00:22:59;6.77;;;6.27;;
10795;SDS011;5450;42.994;23.372;2022-08-19T00:25:32;7.50;;;7.00;;
10795;SDS011;5450;42.994;23.372;2022-08-19T00:28:00;7.20;;;6.80;;
10795;SDS011;5450;42.994;23.372;2022-08-19T00:30:27;7.20;;;6.70;;
10795;SDS011;5450;42.994;23.372;2022-08-19T00:32:55;6.87;;;6.47;;
10795;SDS011;5450;42.994;23.372;2022-08-19T00:35:23;6.53;;;6.10;;
10795;SDS011;5450;42.994;23.372;2022-08-19T00:37:52;7.23;;;6.73;;
10795;SDS011;5450;42.994;23.372;2022-08-19T00:40:21;7.03;;;6.63;;
10795;SDS011;5450;42.994;23.372;2022-08-19T00:42:51;7.00;;;6.50;;
10795;SDS011;5450;42.994;23.372;2022-08-19T00:48:18;6.60;;;6.20;;
10795;SDS011;5450;42.994;23.372;2022-08-19T00:50:47;6.93;;;6.53;;
10795;SDS011;5450;42.994;23.372;2022-08-19T00:53:20;6.90;;;6.50;;
10795;SDS011;5450;42.994;23.372;2022-08-19T00:55:53;6.63;;;5.90;;
10795;SDS011;5450;42.994;23.372;2022-08-19T00:58:24;7.10;;;6.40;;
10795;SDS011;5450;42.994;23.372;2022-08-19T01:03:59;6.87;;;6.47;;
10795;SDS011;5450;42.994;23.372;2022-08-19T01:06:27;7.73;;;7.23;;
10795;SDS011;5450;42.994;23.372;2022-08-19T01:08:55;6.73;;;6.33;;
10795;SDS011;5450;42.994;23.372;2022-08-19T01:11:34;7.30;;;6.87;;
10795;SDS011;5450;42.994;23.372;2022-08-19T01:14:05;7.17;;;6.60;;
10795;SDS011;5450;42.994;23.372;2022-08-19T01:16:35;6.87;;;6.20;;
10795;SDS011;5450;42.994;23.372;2022-08-19T01:19:07;6.90;;;6.50;;
10795;SDS011;5450;42.994;23.372;2022-08-19T01:21:40;7.13;;;6.63;;
10795;SDS011;5450;42.994;23.372;2022-08-19T01:24:14;7.20;;;6.70;;
10795;SDS011;5450;42.994;23.372;2022-08-19T01:26:42;6.23;;;5.83;;
10795;SDS011;5450;42.994;23.372;2022-08-19T01:29:15;6.97;;;6.47;;
10795;SDS011;5450;42.994;23.372;2022-08-19T01:31:48;6.93;;;6.40;;
10795;SDS011;5450;42.994;23.372;2022-08-19T01:37:26;7.20;;;6.80;;
10795;SDS011;5450;42.994;23.372;2022-08-19T01:40:06;7.60;;;6.90;;
10795;SDS011;5450;42.994;23.372;2022-08-19T01:42:37;7.53;;;7.03;;
10795;SDS011;5450;42.994;23.372;2022-08-19T01:45:07;6.90;;;6.40;;
10795;SDS011;5450;42.994;23.372;2022-08-19T01:47:35;7.37;;;6.87;;
10795;SDS011;5450;42.994;23.372;2022-08-19T01:50:02;7.40;;;6.80;;
10795;SDS011;5450;42.994;23.372;2022-08-19T01:55:39;6.30;;;6.00;;
10795;SDS011;5450;42.994;23.372;2022-08-19T01:58:08;7.47;;;6.97;;
10795;SDS011;5450;42.994;23.372;2022-08-19T02:00:44;7.13;;;6.73;;
10795;SDS011;5450;42.994;23.372;2022-08-19T02:06:24;7.07;;;6.57;;
10795;SDS011;5450;42.994;23.372;2022-08-19T02:11:56;6.73;;;6.40;;
10795;SDS011;5450;42.994;23.372;2022-08-19T02:14:23;6.90;;;6.40;;
10795;SDS011;5450;42.994;23.372;2022-08-19T02:16:50;6.73;;;6.33;;
10795;SDS011;5450;42.994;23.372;2022-08-19T02:19:23;7.37;;;6.83;;
10795;SDS011;5450;42.994;23.372;2022-08-19T02:21:55;6.50;;;6.03;;
10795;SDS011;5450;42.994;23.372;2022-08-19T02:27:28;6.83;;;6.43;;
10795;SDS011;5450;42.994;23.372;2022-08-19T02:29:59;7.17;;;6.63;;
10795;SDS011;5450;42.994;23.372;2022-08-19T02:32:26;7.13;;;6.23;;
10795;SDS011;5450;42.994;23.372;2022-08-19T02:34:55;6.97;;;6.47;;
10795;SDS011;5450;42.994;23.372;2022-08-19T02:37:28;7.17;;;6.70;;
10795;SDS011;5450;42.994;23.372;2022-08-19T02:40:12;6.57;;;6.07;;
10795;SDS011;5450;42.994;23.372;2022-08-19T02:42:44;7.90;;;7.30;;
10795;SDS011;5450;42.994;23.372;2022-08-19T02:45:17;7.70;;;7.20;;
10795;SDS011;5450;42.994;23.372;2022-08-19T02:47:45;7.17;;;6.77;;
10795;SDS011;5450;42.994;23.372;2022-08-19T02:50:16;7.10;;;6.50;;
10795;SDS011;5450;42.994;23.372;2022-08-19T02:52:43;7.10;;;6.70;;
10795;SDS011;5450;42.994;23.372;2022-08-19T02:55:10;8.03;;;7.50;;
10795;SDS011;5450;42.994;23.372;2022-08-19T03:00:43;6.90;;;6.40;;
10795;SDS011;5450;42.994;23.372;2022-08-19T03:03:11;7.30;;;6.77;;
10795;SDS011;5450;42.994;23.372;2022-08-19T03:05:39;7.57;;;7.07;;
10795;SDS011;5450;42.994;23.372;2022-08-19T03:08:06;7.23;;;6.73;;
10795;SDS011;5450;42.994;23.372;2022-08-19T03:13:33;7.33;;;6.93;;
10795;SDS011;5450;42.994;23.372;2022-08-19T03:16:04;7.10;;;6.50;;
10795;SDS011;5450;42.994;23.372;2022-08-19T03:18:33;7.30;;;6.90;;
10795;SDS011;5450;42.994;23.372;2022-08-19T03:21:14;7.67;;;7.17;;
10795;SDS011;5450;42.994;23.372;2022-08-19T03:23:42;7.40;;;6.80;;
10795;SDS011;5450;42.994;23.372;2022-08-19T03:26:09;7.33;;;6.93;;
10795;SDS011;5450;42.994;23.372;2022-08-19T03:28:38;7.73;;;7.07;;
10795;SDS011;5450;42.994;23.372;2022-08-19T03:31:09;7.80;;;7.23;;
10795;SDS011;5450;42.994;23.372;2022-08-19T03:33:38;7.37;;;6.77;;
10795;SDS011;5450;42.994;23.372;2022-08-19T03:36:07;7.50;;;6.90;;
10795;SDS011;5450;42.994;23.372;2022-08-19T03:38:36;6.57;;;6.17;;
10795;SDS011;5450;42.994;23.372;2022-08-19T03:41:04;7.00;;;6.60;;
10795;SDS011;5450;42.994;23.372;2022-08-19T03:43:34;7.83;;;7.23;;
10795;SDS011;5450;42.994;23.372;2022-08-19T03:46:06;7.70;;;7.03;;
10795;SDS011;5450;42.994;23.372;2022-08-19T03:48:34;7.40;;;6.70;;
10795;SDS011;5450;42.994;23.372;2022-08-19T03:51:03;7.10;;;6.57;;
10795;SDS011;5450;42.994;23.372;2022-08-19T03:56:21;7.03;;;6.47;;
10795;SDS011;5450;42.994;23.372;2022-08-19T03:58:57;7.47;;;7.07;;
10795;SDS011;5450;42.994;23.372;2022-08-19T04:01:29;7.30;;;6.90;;
10795;SDS011;5450;42.994;23.372;2022-08-19T04:03:57;7.87;;;7.20;;
10795;SDS011;5450;42.994;23.372;2022-08-19T04:09:53;7.00;;;6.60;;
10795;SDS011;5450;42.994;23.372;2022-08-19T04:12:22;8.10;;;7.40;;
10795;SDS011;5450;42.994;23.372;2022-08-19T04:14:58;8.57;;;6.73;;
10795;SDS011;5450;42.994;23.372;2022-08-19T04:20:24;8.97;;;7.10;;
10795;SDS011;5450;42.994;23.372;2022-08-19T04:22:51;7.43;;;6.83;;
10795;SDS011;5450;42.994;23.372;2022-08-19T04:25:18;7.77;;;7.20;;
10795;SDS011;5450;42.994;23.372;2022-08-19T04:27:51;7.00;;;6.60;;
10795;SDS011;5450;42.994;23.372;2022-08-19T04:30:21;7.40;;;6.90;;
10795;SDS011;5450;42.994;23.372;2022-08-19T04:39:42;7.40;;;6.90;;
10795;SDS011;5450;42.994;23.372;2022-08-19T04:42:26;8.73;;;7.40;;
10795;SDS011;5450;42.994;23.372;2022-08-19T04:45:05;9.60;;;7.33;;
10795;SDS011;5450;42.994;23.372;2022-08-19T04:47:35;7.77;;;7.37;;
10795;SDS011;5450;42.994;23.372;2022-08-19T04:50:06;7.63;;;7.20;;
10795;SDS011;5450;42.994;23.372;2022-08-19T04:56:19;7.50;;;6.90;;
10795;SDS011;5450;42.994;23.372;2022-08-19T05:07:51;7.47;;;6.77;;
10795;SDS011;5450;42.994;23.372;2022-08-19T05:10:19;7.10;;;6.60;;
10795;SDS011;5450;42.994;23.372;2022-08-19T05:12:48;7.03;;;6.43;;
10795;SDS011;5450;42.994;23.372;2022-08-19T05:15:15;7.23;;;6.83;;
10795;SDS011;5450;42.994;23.372;2022-08-19T05:17:42;6.83;;;6.43;;
10795;SDS011;5450;42.994;23.372;2022-08-19T05:20:29;6.77;;;6.27;;
10795;SDS011;5450;42.994;23.372;2022-08-19T05:26:13;6.93;;;6.50;;
10795;SDS011;5450;42.994;23.372;2022-08-19T05:28:43;6.90;;;6.50;;
10795;SDS011;5450;42.994;23.372;2022-08-19T05:31:16;7.10;;;6.60;;
10795;SDS011;5450;42.994;23.372;2022-08-19T05:33:45;6.80;;;6.30;;
10795;SDS011;5450;42.994;23.372;2022-08-19T05:36:16;6.93;;;6.43;;
10795;SDS011;5450;42.994;23.372;2022-08-19T05:38:44;6.33;;;5.93;;
10795;SDS011;5450;42.994;23.372;2022-08-19T05:41:13;6.73;;;6.23;;
10795;SDS011;5450;42.994;23.372;2022-08-19T05:43:45;7.40;;;6.90;;
10795;SDS011;5450;42.994;23.372;2022-08-19T05:46:16;7.03;;;6.37;;
10795;SDS011;5450;42.994;23.372;2022-08-19T05:54:48;6.40;;;5.93;;
10795;SDS011;5450;42.994;23.372;2022-08-19T05:57:21;6.87;;;6.40;;
10795;SDS011;5450;42.994;23.372;2022-08-19T05:59:51;6.07;;;5.47;;
10795;SDS011;5450;42.994;23.372;2022-08-19T06:02:20;6.60;;;5.87;;
10795;SDS011;5450;42.994;23.372;2022-08-19T06:04:52;5.93;;;5.53;;
10795;SDS011;5450;42.994;23.372;2022-08-19T06:07:19;6.57;;;6.17;;
10795;SDS011;5450;42.994;23.372;2022-08-19T06:13:06;5.93;;;5.47;;
10795;SDS011;5450;42.994;23.372;2022-08-19T06:15:37;5.77;;;5.10;;
10795;SDS011;5450;42.994;23.372;2022-08-19T06:18:06;6.40;;;5.80;;
10795;SDS011;5450;42.994;23.372;2022-08-19T06:20:33;5.80;;;5.40;;
10795;SDS011;5450;42.994;23.372;2022-08-19T06:23:00;5.60;;;5.17;;
10795;SDS011;5450;42.994;23.372;2022-08-19T06:25:31;6.13;;;5.80;;
10795;SDS011;5450;42.994;23.372;2022-08-19T06:28:03;5.73;;;5.20;;
10795;SDS011;5450;42.994;23.372;2022-08-19T06:33:53;5.67;;;5.23;;
10795;SDS011;5450;42.994;23.372;2022-08-19T06:36:24;5.53;;;5.13;;
10795;SDS011;5450;42.994;23.372;2022-08-19T06:38:57;6.60;;;6.17;;
10795;SDS011;5450;42.994;23.372;2022-08-19T06:41:34;5.53;;;5.13;;
10795;SDS011;5450;42.994;23.372;2022-08-19T06:44:04;5.50;;;5.00;;
10795;SDS011;5450;42.994;23.372;2022-08-19T06:46:36;5.87;;;5.47;;
10795;SDS011;5450;42.994;23.372;2022-08-19T06:52:04;5.10;;;4.80;;
10795;SDS011;5450;42.994;23.372;2022-08-19T06:57:38;6.20;;;5.60;;
10795;SDS011;5450;42.994;23.372;2022-08-19T07:00:05;6.13;;;5.72;;
10795;SDS011;5450;42.994;23.372;2022-08-19T07:05:43;5.70;;;5.40;;
10795;SDS011;5450;42.994;23.372;2022-08-19T07:08:15;6.25;;;5.75;;
10795;SDS011;5450;42.994;23.372;2022-08-19T07:10:52;5.88;;;5.38;;
10795;SDS011;5450;42.994;23.372;2022-08-19T07:13:23;5.93;;;5.63;;
10795;SDS011;5450;42.994;23.372;2022-08-19T07:15:50;5.93;;;5.43;;
10795;SDS011;5450;42.994;23.372;2022-08-19T07:18:18;5.32;;;4.93;;
10795;SDS011;5450;42.994;23.372;2022-08-19T07:20:49;5.40;;;5.10;;
10795;SDS011;5450;42.994;23.372;2022-08-19T07:23:21;5.93;;;5.47;;
10795;SDS011;5450;42.994;23.372;2022-08-19T07:25:54;5.97;;;5.38;;
10795;SDS011;5450;42.994;23.372;2022-08-19T07:31:46;5.68;;;5.25;;
10795;SDS011;5450;42.994;23.372;2022-08-19T07:37:50;5.60;;;5.30;;
10795;SDS011;5450;42.994;23.372;2022-08-19T07:40:18;5.03;;;4.80;;
10795;SDS011;5450;42.994;23.372;2022-08-19T07:45:42;5.57;;;5.03;;
10795;SDS011;5450;42.994;23.372;2022-08-19T07:51:27;5.20;;;4.72;;
10795;SDS011;5450;42.994;23.372;2022-08-19T08:03:58;5.25;;;4.95;;
10795;SDS011;5450;42.994;23.372;2022-08-19T08:16:43;5.50;;;5.20;;
10795;SDS011;5450;42.994;23.372;2022-08-19T08:22:46;5.28;;;4.88;;
10795;SDS011;5450;42.994;23.372;2022-08-19T08:25:32;4.80;;;4.50;;
10795;SDS011;5450;42.994;23.372;2022-08-19T08:31:35;4.68;;;4.40;;
10795;SDS011;5450;42.994;23.372;2022-08-19T08:36:55;5.15;;;4.65;;
10795;SDS011;5450;42.994;23.372;2022-08-19T08:39:25;4.70;;;4.50;;
10795;SDS011;5450;42.994;23.372;2022-08-19T08:45:14;4.57;;;4.38;;
10795;SDS011;5450;42.994;23.372;2022-08-19T08:51:26;3.90;;;3.70;;
10795;SDS011;5450;42.994;23.372;2022-08-19T08:54:02;21.63;;;5.07;;
10795;SDS011;5450;42.994;23.372;2022-08-19T08:59:34;4.68;;;4.20;;
10795;SDS011;5450;42.994;23.372;2022-08-19T09:02:08;3.92;;;3.65;;
10795;SDS011;5450;42.994;23.372;2022-08-19T09:04:35;4.10;;;3.90;;
10795;SDS011;5450;42.994;23.372;2022-08-19T09:13:48;4.22;;;3.58;;
10795;SDS011;5450;42.994;23.372;2022-08-19T09:20:03;4.05;;;3.67;;
10795;SDS011;5450;42.994;23.372;2022-08-19T09:32:01;5.25;;;4.28;;
10795;SDS011;5450;42.994;23.372;2022-08-19T09:38:12;5.13;;;3.65;;
10795;SDS011;5450;42.994;23.372;2022-08-19T09:51:03;4.15;;;3.85;;
10795;SDS011;5450;42.994;23.372;2022-08-19T09:53:36;5.15;;;4.35;;
10795;SDS011;5450;42.994;23.372;2022-08-19T09:59:47;12.05;;;5.03;;
10795;SDS011;5450;42.994;23.372;2022-08-19T10:05:48;4.25;;;3.95;;
10795;SDS011;5450;42.994;23.372;2022-08-19T10:08:21;4.55;;;4.25;;
10795;SDS011;5450;42.994;23.372;2022-08-19T10:17:21;5.80;;;5.32;;
10795;SDS011;5450;42.994;23.372;2022-08-19T10:19:50;5.47;;;5.00;;
10795;SDS011;5450;42.994;23.372;2022-08-19T10:41:50;4.90;;;4.55;;
10795;SDS011;5450;42.994;23.372;2022-08-19T10:44:22;4.80;;;4.47;;
10795;SDS011;5450;42.994;23.372;2022-08-19T10:50:28;5.07;;;4.63;;
10795;SDS011;5450;42.994;23.372;2022-08-19T10:56:46;4.55;;;4.15;;
10795;SDS011;5450;42.994;23.372;2022-08-19T11:06:00;4.38;;;4.05;;
10795;SDS011;5450;42.994;23.372;2022-08-19T11:11:56;5.13;;;4.82;;
10795;SDS011;5450;42.994;23.372;2022-08-19T11:14:23;5.55;;;4.78;;
10795;SDS011;5450;42.994;23.372;2022-08-19T11:16:54;6.78;;;4.70;;
10795;SDS011;5450;42.994;23.372;2022-08-19T11:22:25;13.80;;;5.68;;
10795;SDS011;5450;42.994;23.372;2022-08-19T11:28:13;5.20;;;4.75;;
10795;SDS011;5450;42.994;23.372;2022-08-19T11:30:44;6.88;;;4.60;;
10795;SDS011;5450;42.994;23.372;2022-08-19T11:33:13;4.85;;;4.53;;
10795;SDS011;5450;42.994;23.372;2022-08-19T11:35:41;5.47;;;4.97;;
10795;SDS011;5450;42.994;23.372;2022-08-19T11:38:14;5.15;;;4.25;;
10795;SDS011;5450;42.994;23.372;2022-08-19T11:40:53;4.60;;;4.30;;
10795;SDS011;5450;42.994;23.372;2022-08-19T11:46:46;6.25;;;4.70;;
10795;SDS011;5450;42.994;23.372;2022-08-19T11:49:20;5.30;;;4.90;;
10795;SDS011;5450;42.994;23.372;2022-08-19T11:57:58;5.32;;;4.65;;
10795;SDS011;5450;42.994;23.372;2022-08-19T12:00:34;5.15;;;4.80;;
10795;SDS011;5450;42.994;23.372;2022-08-19T12:12:11;5.18;;;4.07;;
10795;SDS011;5450;42.994;23.372;2022-08-19T12:14:39;4.13;;;3.83;;
10795;SDS011;5450;42.994;23.372;2022-08-19T12:17:08;15.75;;;4.85;;
10795;SDS011;5450;42.994;23.372;2022-08-19T12:26:03;4.68;;;4.28;;
10795;SDS011;5450;42.994;23.372;2022-08-19T12:28:34;4.13;;;3.83;;
10795;SDS011;5450;42.994;23.372;2022-08-19T12:31:04;4.20;;;4.00;;
10795;SDS011;5450;42.994;23.372;2022-08-19T12:33:32;4.45;;;4.18;;
10795;SDS011;5450;42.994;23.372;2022-08-19T12:39:38;4.18;;;3.88;;
10795;SDS011;5450;42.994;23.372;2022-08-19T12:42:11;4.03;;;3.72;;
10795;SDS011;5450;42.994;23.372;2022-08-19T12:44:45;4.75;;;4.25;;
10795;SDS011;5450;42.994;23.372;2022-08-19T12:47:15;4.95;;;4.55;;
10795;SDS011;5450;42.994;23.372;2022-08-19T12:49:43;4.28;;;3.92;;
10795;SDS011;5450;42.994;23.372;2022-08-19T12:52:14;4.15;;;3.85;;
10795;SDS011;5450;42.994;23.372;2022-08-19T12:54:42;4.82;;;4.13;;
10795;SDS011;5450;42.994;23.372;2022-08-19T12:57:13;4.47;;;4.07;;
10795;SDS011;5450;42.994;23.372;2022-08-19T12:59:42;4.30;;;3.92;;
10795;SDS011;5450;42.994;23.372;2022-08-19T13:02:16;4.07;;;3.88;;
10795;SDS011;5450;42.994;23.372;2022-08-19T13:08:12;4.32;;;3.90;;
10795;SDS011;5450;42.994;23.372;2022-08-19T13:10:41;4.95;;;4.60;;
10795;SDS011;5450;42.994;23.372;2022-08-19T13:13:20;5.45;;;4.00;;
10795;SDS011;5450;42.994;23.372;2022-08-19T13:15:59;4.95;;;4.28;;
10795;SDS011;5450;42.994;23.372;2022-08-19T13:18:31;9.18;;;4.45;;
10795;SDS011;5450;42.994;23.372;2022-08-19T13:21:01;5.70;;;4.00;;
10795;SDS011;5450;42.994;23.372;2022-08-19T13:23:31;4.50;;;4.20;;
10795;SDS011;5450;42.994;23.372;2022-08-19T13:26:00;5.20;;;4.00;;
10795;SDS011;5450;42.994;23.372;2022-08-19T13:28:35;4.20;;;3.85;;
10795;SDS011;5450;42.994;23.372;2022-08-19T13:31:24;5.93;;;4.13;;
10795;SDS011;5450;42.994;23.372;2022-08-19T13:34:10;4.38;;;3.97;;
10795;SDS011;5450;42.994;23.372;2022-08-19T13:36:39;4.93;;;4.20;;
10795;SDS011;5450;42.994;23.372;2022-08-19T13:39:13;4.82;;;4.18;;
10795;SDS011;5450;42.994;23.372;2022-08-19T13:41:46;8.10;;;4.00;;
10795;SDS011;5450;42.994;23.372;2022-08-19T13:44:20;6.32;;;3.88;;
10795;SDS011;5450;42.994;23.372;2022-08-19T13:46:50;4.60;;;4.30;;
10795;SDS011;5450;42.994;23.372;2022-08-19T13:52:55;5.13;;;4.03;;
10795;SDS011;5450;42.994;23.372;2022-08-19T13:58:21;4.32;;;4.00;;
10795;SDS011;5450;42.994;23.372;2022-08-19T14:00:50;7.53;;;3.75;;
10795;SDS011;5450;42.994;23.372;2022-08-19T14:03:20;4.38;;;3.63;;
10795;SDS011;5450;42.994;23.372;2022-08-19T14:05:48;12.32;;;4.18;;
10795;SDS011;5450;42.994;23.372;2022-08-19T14:08:19;4.82;;;4.10;;
10795;SDS011;5450;42.994;23.372;2022-08-19T14:10:48;4.57;;;3.97;;
10795;SDS011;5450;42.994;23.372;2022-08-19T14:19:56;5.70;;;4.00;;
10795;SDS011;5450;42.994;23.372;2022-08-19T14:28:44;4.38;;;3.95;;
10795;SDS011;5450;42.994;23.372;2022-08-19T14:31:18;4.30;;;4.00;;
10795;SDS011;5450;42.994;23.372;2022-08-19T14:36:59;4.88;;;4.35;;
10795;SDS011;5450;42.994;23.372;2022-08-19T14:39:28;4.65;;;4.30;;
10795;SDS011;5450;42.994;23.372;2022-08-19T14:41:55;4.70;;;3.47;;
10795;SDS011;5450;42.994;23.372;2022-08-19T14:47:30;4.30;;;3.90;;
10795;SDS011;5450;42.994;23.372;2022-08-19T14:49:59;3.95;;;3.65;;
10795;SDS011;5450;42.994;23.372;2022-08-19T14:52:28;4.60;;;4.20;;
10795;SDS011;5450;42.994;23.372;2022-08-19T14:54:58;4.03;;;3.67;;
10795;SDS011;5450;42.994;23.372;2022-08-19T14:57:25;3.88;;;3.58;;
10795;SDS011;5450;42.994;23.372;2022-08-19T14:59:52;4.28;;;3.88;;
10795;SDS011;5450;42.994;23.372;2022-08-19T15:05:30;4.82;;;4.43;;
10795;SDS011;5450;42.994;23.372;2022-08-19T15:15:01;27.20;;;5.55;;
10795;SDS011;5450;42.994;23.372;2022-08-19T15:17:31;12.63;;;4.35;;
10795;SDS011;5450;42.994;23.372;2022-08-19T15:30:04;4.95;;;4.47;;
10795;SDS011;5450;42.994;23.372;2022-08-19T15:36:01;6.20;;;4.22;;
10795;SDS011;5450;42.994;23.372;2022-08-19T15:38:30;10.05;;;4.43;;
10795;SDS011;5450;42.994;23.372;2022-08-19T15:57:32;4.88;;;4.40;;
10795;SDS011;5450;42.994;23.372;2022-08-19T16:03:38;4.60;;;4.05;;
10795;SDS011;5450;42.994;23.372;2022-08-19T16:12:41;4.85;;;3.70;;
10795;SDS011;5450;42.994;23.372;2022-08-19T16:15:08;5.55;;;4.30;;
10795;SDS011;5450;42.994;23.372;2022-08-19T16:24:02;4.57;;;4.13;;
10795;SDS011;5450;42.994;23.372;2022-08-19T16:29:31;5.82;;;4.38;;
10795;SDS011;5450;42.994;23.372;2022-08-19T16:32:00;5.78;;;4.20;;
10795;SDS011;5450;42.994;23.372;2022-08-19T16:34:28;4.50;;;4.10;;
10795;SDS011;5450;42.994;23.372;2022-08-19T16:36:56;3.90;;;3.60;;
10795;SDS011;5450;42.994;23.372;2022-08-19T16:39:23;8.40;;;4.45;;
10795;SDS011;5450;42.994;23.372;2022-08-19T16:41:51;4.40;;;4.07;;
10795;SDS011;5450;42.994;23.372;2022-08-19T16:44:22;4.80;;;4.40;;
10795;SDS011;5450;42.994;23.372;2022-08-19T16:46:52;5.22;;;4.72;;
10795;SDS011;5450;42.994;23.372;2022-08-19T16:49:20;4.80;;;4.40;;
10795;SDS011;5450;42.994;23.372;2022-08-19T16:51:50;6.20;;;4.70;;
10795;SDS011;5450;42.994;23.372;2022-08-19T16:57:21;8.35;;;5.70;;
10795;SDS011;5450;42.994;23.372;2022-08-19T16:59:51;6.82;;;6.22;;
10795;SDS011;5450;42.994;23.372;2022-08-19T17:02:20;6.13;;;5.43;;
10795;SDS011;5450;42.994;23.372;2022-08-19T17:07:59;4.78;;;4.38;;
10795;SDS011;5450;42.994;23.372;2022-08-19T17:10:28;5.55;;;5.13;;
10795;SDS011;5450;42.994;23.372;2022-08-19T17:19:10;6.05;;;5.63;;
10795;SDS011;5450;42.994;23.372;2022-08-19T17:24:59;5.53;;;4.85;;
10795;SDS011;5450;42.994;23.372;2022-08-19T17:27:28;5.05;;;4.70;;
10795;SDS011;5450;42.994;23.372;2022-08-19T17:29:55;5.00;;;4.60;;
10795;SDS011;5450;42.994;23.372;2022-08-19T17:38:38;5.93;;;5.43;;
10795;SDS011;5450;42.994;23.372;2022-08-19T17:41:07;5.15;;;4.65;;
10795;SDS011;5450;42.994;23.372;2022-08-19T17:46:33;5.07;;;4.55;;
10795;SDS011;5450;42.994;23.372;2022-08-19T17:49:06;5.07;;;4.60;;
10795;SDS011;5450;42.994;23.372;2022-08-19T17:51:37;5.65;;;4.47;;
10795;SDS011;5450;42.994;23.372;2022-08-19T17:54:07;8.95;;;4.75;;
10795;SDS011;5450;42.994;23.372;2022-08-19T17:59:31;7.40;;;4.60;;
10795;SDS011;5450;42.994;23.372;2022-08-19T18:01:58;5.45;;;4.78;;
10795;SDS011;5450;42.994;23.372;2022-08-19T18:07:36;5.88;;;5.40;;
10795;SDS011;5450;42.994;23.372;2022-08-19T18:13:03;8.45;;;7.80;;
10795;SDS011;5450;42.994;23.372;2022-08-19T18:15:31;9.70;;;8.73;;
10795;SDS011;5450;42.994;23.372;2022-08-19T18:17:58;10.45;;;9.45;;
10795;SDS011;5450;42.994;23.372;2022-08-19T18:20:26;7.97;;;7.18;;
10795;SDS011;5450;42.994;23.372;2022-08-19T18:22:55;7.03;;;6.53;;
10795;SDS011;5450;42.994;23.372;2022-08-19T18:25:24;7.38;;;6.28;;
10795;SDS011;5450;42.994;23.372;2022-08-19T18:27:53;7.82;;;5.75;;
10795;SDS011;5450;42.994;23.372;2022-08-19T18:30:24;5.90;;;5.40;;
10795;SDS011;5450;42.994;23.372;2022-08-19T18:32:58;5.68;;;5.20;;
10795;SDS011;5450;42.994;23.372;2022-08-19T18:38:38;5.57;;;5.18;;
10795;SDS011;5450;42.994;23.372;2022-08-19T18:41:22;5.47;;;4.90;;
10795;SDS011;5450;42.994;23.372;2022-08-19T18:47:34;5.13;;;4.63;;
10795;SDS011;5450;42.994;23.372;2022-08-19T18:50:18;5.40;;;4.90;;
10795;SDS011;5450;42.994;23.372;2022-08-19T18:52:49;5.45;;;4.95;;
10795;SDS011;5450;42.994;23.372;2022-08-19T18:55:21;6.00;;;5.35;;
10795;SDS011;5450;42.994;23.372;2022-08-19T18:57:52;6.07;;;5.53;;
10795;SDS011;5450;42.994;23.372;2022-08-19T19:00:23;5.95;;;5.32;;
10795;SDS011;5450;42.994;23.372;2022-08-19T19:05:59;5.72;;;5.22;;
10795;SDS011;5450;42.994;23.372;2022-08-19T19:08:27;5.35;;;4.95;;
10795;SDS011;5450;42.994;23.372;2022-08-19T19:10:57;5.43;;;4.93;;
10795;SDS011;5450;42.994;23.372;2022-08-19T19:13:29;5.50;;;5.03;;
10795;SDS011;5450;42.994;23.372;2022-08-19T19:15:57;5.22;;;4.88;;
10795;SDS011;5450;42.994;23.372;2022-08-19T19:18:32;6.97;;;5.32;;
10795;SDS011;5450;42.994;23.372;2022-08-19T19:21:04;5.68;;;5.28;;
10795;SDS011;5450;42.994;23.372;2022-08-19T19:23:34;6.47;;;5.15;;
10795;SDS011;5450;42.994;23.372;2022-08-19T19:26:12;5.25;;;4.95;;
10795;SDS011;5450;42.994;23.372;2022-08-19T19:28:43;6.03;;;5.32;;
10795;SDS011;5450;42.994;23.372;2022-08-19T19:31:14;5.30;;;4.80;;
10795;SDS011;5450;42.994;23.372;2022-08-19T19:33:50;5.60;;;5.20;;
10795;SDS011;5450;42.994;23.372;2022-08-19T19:39:41;5.77;;;5.43;;
10795;SDS011;5450;42.994;23.372;2022-08-19T19:42:15;5.87;;;5.40;;
10795;SDS011;5450;42.994;23.372;2022-08-19T19:44:44;5.53;;;5.10;;
10795;SDS011;5450;42.994;23.372;2022-08-19T19:47:13;6.33;;;5.83;;
10795;SDS011;5450;42.994;23.372;2022-08-19T19:49:42;7.80;;;5.60;;
10795;SDS011;5450;42.994;23.372;2022-08-19T19:52:10;5.53;;;5.20;;
10795;SDS011;5450;42.994;23.372;2022-08-19T19:54:37;6.17;;;5.63;;
10795;SDS011;5450;42.994;23.372;2022-08-19T19:57:06;5.80;;;5.23;;
10795;SDS011;5450;42.994;23.372;2022-08-19T19:59:42;6.37;;;5.80;;
10795;SDS011;5450;42.994;23.372;2022-08-19T20:02:10;6.17;;;5.57;;
10795;SDS011;5450;42.994;23.372;2022-08-19T20:04:41;8.13;;;5.33;;
10795;SDS011;5450;42.994;23.372;2022-08-19T20:07:08;5.67;;;5.30;;
10795;SDS011;5450;42.994;23.372;2022-08-19T20:09:41;5.90;;;5.40;;
10795;SDS011;5450;42.994;23.372;2022-08-19T20:15:12;5.77;;;5.27;;
10795;SDS011;5450;42.994;23.372;2022-08-19T20:17:39;6.60;;;6.00;;
10795;SDS011;5450;42.994;23.372;2022-08-19T20:20:08;6.20;;;5.30;;
10795;SDS011;5450;42.994;23.372;2022-08-19T20:22:36;6.60;;;6.10;;
10795;SDS011;5450;42.994;23.372;2022-08-19T20:25:05;5.93;;;5.43;;
10795;SDS011;5450;42.994;23.372;2022-08-19T20:27:36;6.13;;;5.73;;
10795;SDS011;5450;42.994;23.372;2022-08-19T20:30:10;5.93;;;5.30;;
10795;SDS011;5450;42.994;23.372;2022-08-19T20:36:04;9.00;;;6.20;;
10795;SDS011;5450;42.994;23.372;2022-08-19T20:38:32;6.50;;;5.90;;
10795;SDS011;5450;42.994;23.372;2022-08-19T20:40:59;6.30;;;5.70;;
10795;SDS011;5450;42.994;23.372;2022-08-19T20:43:29;5.77;;;5.37;;
10795;SDS011;5450;42.994;23.372;2022-08-19T20:46:01;6.60;;;6.07;;
10795;SDS011;5450;42.994;23.372;2022-08-19T20:48:28;6.60;;;5.97;;
10795;SDS011;5450;42.994;23.372;2022-08-19T20:50:56;6.03;;;5.53;;
10795;SDS011;5450;42.994;23.372;2022-08-19T20:53:24;8.77;;;6.40;;
10795;SDS011;5450;42.994;23.372;2022-08-19T20:58:56;6.83;;;6.23;;
10795;SDS011;5450;42.994;23.372;2022-08-19T21:01:24;6.50;;;5.87;;
10795;SDS011;5450;42.994;23.372;2022-08-19T21:06:40;6.47;;;5.97;;
10795;SDS011;5450;42.994;23.372;2022-08-19T21:09:07;7.13;;;5.53;;
10795;SDS011;5450;42.994;23.372;2022-08-19T21:11:34;6.00;;;5.70;;
10795;SDS011;5450;42.994;23.372;2022-08-19T21:14:20;6.03;;;5.60;;
10795;SDS011;5450;42.994;23.372;2022-08-19T21:16:52;7.30;;;5.73;;
10795;SDS011;5450;42.994;23.372;2022-08-19T21:22:40;7.67;;;6.50;;
10795;SDS011;5450;42.994;23.372;2022-08-19T21:25:09;6.73;;;6.13;;
10795;SDS011;5450;42.994;23.372;2022-08-19T21:27:38;9.17;;;6.30;;
10795;SDS011;5450;42.994;23.372;2022-08-19T21:30:10;6.60;;;6.07;;
10795;SDS011;5450;42.994;23.372;2022-08-19T21:32:39;6.13;;;5.70;;
10795;SDS011;5450;42.994;23.372;2022-08-19T21:35:19;6.00;;;5.43;;
10795;SDS011;5450;42.994;23.372;2022-08-19T21:37:48;6.87;;;6.27;;
10795;SDS011;5450;42.994;23.372;2022-08-19T21:40:17;6.40;;;6.00;;
10795;SDS011;5450;42.994;23.372;2022-08-19T21:42:44;6.53;;;5.90;;
10795;SDS011;5450;42.994;23.372;2022-08-19T21:45:12;7.43;;;6.73;;
10795;SDS011;5450;42.994;23.372;2022-08-19T21:47:43;6.67;;;6.07;;
10795;SDS011;5450;42.994;23.372;2022-08-19T21:50:11;6.57;;;5.97;;
10795;SDS011;5450;42.994;23.372;2022-08-19T21:52:43;6.57;;;6.07;;
10795;SDS011;5450;42.994;23.372;2022-08-19T21:55:11;6.37;;;5.87;;
10795;SDS011;5450;42.994;23.372;2022-08-19T21:57:39;7.23;;;6.57;;